Time;durP1;ratioP1;P1;durP2;ratioP2;P2;SDS_P1;SDS_P2;PMS_P1;PMS_P2;Temp;Humidity;BMP_temperature;BMP_pressure;BME280_temperature;BME280_humidity;BME280_pressure;Samples;Min_cycle;Max_cycle;Signal;HPM_P1;HPM_P2
2023/11/29 00:00:59;;;;;;;2.30;1.20;;;;;;;18.78;51.47;100278.75;5062107;28;20729;-39
2023/11/29 00:03:25;;;;;;;2.45;1.30;;;;;;;18.76;51.41;100267.22;5055523;28;20031;-39
2023/11/29 00:05:51;;;;;;;5.22;1.52;;;;;;;18.74;51.64;100272.22;5067664;28;20096;-39
2023/11/29 00:08:17;;;;;;;2.20;1.35;;;;;;;18.75;51.68;100268.38;5075131;28;20036;-38
2023/11/29 00:10:43;;;;;;;2.92;1.23;;;;;;;18.72;51.47;100258.78;5064008;28;20596;-35
2023/11/29 00:13:08;;;;;;;3.42;1.30;;;;;;;18.72;51.55;100263.44;5059058;28;20041;-35
2023/11/29 00:15:34;;;;;;;2.13;1.10;;;;;;;18.68;51.64;100257.72;5063344;28;20020;-35
2023/11/29 00:17:59;;;;;;;2.05;1.10;;;;;;;18.70;51.66;100252.78;5062485;28;20060;-35
2023/11/29 00:20:25;;;;;;;2.80;1.30;;;;;;;18.67;51.79;100256.09;5063725;28;20115;-35
2023/11/29 00:22:50;;;;;;;3.03;1.30;;;;;;;18.68;51.70;100248.69;5064815;28;20036;-35
2023/11/29 00:25:16;;;;;;;2.22;1.20;;;;;;;18.67;51.61;100239.63;5060694;28;20025;-34
2023/11/29 00:27:41;;;;;;;5.30;1.27;;;;;;;18.67;51.79;100245.13;5062411;28;20050;-34
2023/11/29 00:30:07;;;;;;;3.20;1.45;;;;;;;18.66;51.65;100232.50;5062525;28;20024;-34
2023/11/29 00:32:32;;;;;;;2.88;1.40;;;;;;;18.66;51.61;100231.69;5062826;28;20055;-34
2023/11/29 00:34:58;;;;;;;3.15;1.17;;;;;;;18.66;51.63;100232.50;5063269;28;20038;-34
2023/11/29 00:37:23;;;;;;;4.57;1.67;;;;;;;18.66;51.55;100231.69;5058966;28;20020;-34
2023/11/29 00:39:49;;;;;;;2.53;1.30;;;;;;;18.64;51.56;100231.16;5069991;28;20031;-34
2023/11/29 00:42:14;;;;;;;2.63;1.38;;;;;;;18.64;51.57;100220.19;5059509;28;20035;-34
2023/11/29 00:44:39;;;;;;;5.70;1.63;;;;;;;18.64;51.46;100211.94;5049489;28;20423;-34
2023/11/29 00:47:05;;;;;;;1.92;1.13;;;;;;;18.63;51.57;100208.41;5055820;28;20020;-38
2023/11/29 00:49:30;;;;;;;4.10;1.23;;;;;;;18.62;51.79;100209.50;5062875;28;20081;-38
2023/11/29 00:51:55;;;;;;;3.63;1.08;;;;;;;18.60;51.46;100214.47;5057824;28;20100;-39
2023/11/29 00:54:21;;;;;;;3.65;1.20;;;;;;;18.61;51.84;100210.63;5060634;28;20037;-38
2023/11/29 00:56:46;;;;;;;3.25;1.30;;;;;;;18.59;51.45;100197.19;5060211;28;20567;-39
2023/11/29 00:59:12;;;;;;;2.30;1.23;;;;;;;18.60;51.48;100200.75;5053944;28;20405;-38
2023/11/29 01:01:38;;;;;;;3.30;1.30;;;;;;;18.59;51.34;100221.09;5058038;28;20031;-39
2023/11/29 01:04:03;;;;;;;2.50;1.30;;;;;;;18.58;51.31;100246.91;5063163;28;20035;-39
2023/11/29 01:06:30;;;;;;;2.63;1.10;;;;;;;18.56;51.56;100202.47;5053927;28;20028;-38
2023/11/29 01:08:56;;;;;;;2.53;1.30;;;;;;;18.55;51.72;100192.59;5070937;28;20113;-39
2023/11/29 01:11:23;;;;;;;3.03;1.15;;;;;;;18.54;51.37;100197.28;5062263;28;20108;-38
2023/11/29 01:13:49;;;;;;;4.63;1.45;;;;;;;18.52;51.30;100183.03;5062558;28;20039;-38
2023/11/29 01:16:14;;;;;;;3.03;1.40;;;;;;;18.52;51.46;100191.25;5063418;28;20419;-39
2023/11/29 01:18:41;;;;;;;5.13;1.30;;;;;;;18.51;51.63;100181.41;5064525;28;20348;-38
2023/11/29 01:21:16;;;;;;;5.97;1.80;;;;;;;18.49;51.34;100175.41;5055136;28;20040;-39
2023/11/29 01:23:42;;;;;;;1.85;1.30;;;;;;;18.50;51.27;100192.69;5073477;28;20757;-39
2023/11/29 01:26:08;;;;;;;2.47;1.20;;;;;;;18.48;51.27;100182.00;5064447;28;20138;-38
2023/11/29 01:28:34;;;;;;;4.78;1.35;;;;;;;18.46;51.11;100177.94;5086720;28;20232;-39
2023/11/29 01:31:00;;;;;;;2.70;1.25;;;;;;;18.46;51.36;100183.41;5064689;28;20443;-38
2023/11/29 01:33:25;;;;;;;3.90;1.38;;;;;;;18.44;51.69;100181.78;5063902;28;20541;-39
2023/11/29 01:35:51;;;;;;;2.95;1.10;;;;;;;18.44;51.40;100180.94;5060524;28;20060;-35
2023/11/29 01:38:17;;;;;;;2.55;1.40;;;;;;;18.43;51.43;100177.41;5061793;28;20208;-35
2023/11/29 01:40:43;;;;;;;2.15;1.10;;;;;;;18.43;51.20;100174.66;5058229;28;20032;-39
2023/11/29 01:43:08;;;;;;;3.33;1.20;;;;;;;18.42;51.47;100178.50;5058734;28;20019;-39
2023/11/29 01:45:33;;;;;;;6.20;1.52;;;;;;;18.41;51.49;100176.88;5054343;28;20112;-39
2023/11/29 01:47:59;;;;;;;3.10;1.20;;;;;;;18.41;51.34;100176.88;5062083;28;20017;-38
2023/11/29 01:50:28;;;;;;;2.35;1.13;;;;;;;18.40;51.40;100166.19;5062343;28;20491;-38
2023/11/29 01:52:54;;;;;;;3.15;1.38;;;;;;;18.41;51.45;100165.09;5071812;28;20055;-38
2023/11/29 01:55:21;;;;;;;2.30;1.27;;;;;;;18.41;51.73;100173.31;5063822;28;20068;-38
2023/11/29 01:57:49;;;;;;;5.40;1.40;;;;;;;18.40;51.22;100168.94;5061777;28;20397;-38
2023/11/29 02:00:15;;;;;;;1.67;1.10;;;;;;;18.39;51.47;100164.56;5049492;28;20410;-39
2023/11/29 02:02:40;;;;;;;2.67;1.40;;;;;;;18.38;51.22;100171.16;5059671;28;20115;-38
2023/11/29 02:05:06;;;;;;;2.97;1.27;;;;;;;18.39;51.49;100167.31;5085486;28;20370;-35
2023/11/29 02:07:31;;;;;;;2.38;1.20;;;;;;;18.37;51.24;100164.88;5062602;28;20033;-35
2023/11/29 02:09:57;;;;;;;5.05;1.52;;;;;;;18.36;51.10;100156.94;5077663;28;20111;-35
2023/11/29 02:12:22;;;;;;;3.47;1.20;;;;;;;18.33;51.10;100158.34;5061694;28;20036;-35
2023/11/29 02:14:48;;;;;;;2.65;1.33;;;;;;;18.35;51.30;100160.78;5062064;28;20084;-35
2023/11/29 02:17:13;;;;;;;3.38;1.85;;;;;;;18.34;51.14;100162.69;5064134;28;20025;-38
2023/11/29 02:19:39;;;;;;;6.20;1.40;;;;;;;18.34;51.00;100167.38;5073022;28;20044;-38
2023/11/29 02:22:04;;;;;;;3.20;1.70;;;;;;;18.33;50.99;100154.75;5064015;28;20102;-38
2023/11/29 02:24:34;;;;;;;3.88;1.35;;;;;;;18.33;51.32;100185.78;5058519;28;20052;-38
2023/11/29 02:27:00;;;;;;;2.97;1.38;;;;;;;18.33;51.22;100191.25;5077146;28;20025;-38
2023/11/29 02:29:25;;;;;;;2.65;1.30;;;;;;;18.32;51.00;100205.25;5057929;28;20028;-38
2023/11/29 02:31:50;;;;;;;2.55;1.42;;;;;;;18.31;51.25;100182.50;5049459;28;20020;-38
2023/11/29 02:34:16;;;;;;;2.53;1.30;;;;;;;18.31;50.94;100171.53;5063302;28;20128;-38
2023/11/29 02:36:41;;;;;;;6.68;1.80;;;;;;;18.30;50.92;100164.41;5065390;28;20024;-38
2023/11/29 02:39:09;;;;;;;3.13;1.52;;;;;;;18.30;51.24;100156.19;5066273;28;20456;-38
2023/11/29 02:41:37;;;;;;;3.63;1.40;;;;;;;18.27;50.88;100154.84;5064130;28;20111;-38
2023/11/29 02:44:03;;;;;;;2.03;1.33;;;;;;;18.27;50.96;100143.88;5059468;28;20021;-38
2023/11/29 02:46:28;;;;;;;3.25;1.17;;;;;;;18.25;50.92;100156.25;5053646;28;20025;-38
2023/11/29 02:48:54;;;;;;;3.33;1.77;;;;;;;18.23;50.84;100131.88;5073722;28;20074;-38
2023/11/29 02:51:19;;;;;;;1.83;1.13;;;;;;;18.22;50.87;100123.91;5071073;28;20021;-38
2023/11/29 02:53:44;;;;;;;4.35;1.30;;;;;;;18.20;51.04;100121.47;5067228;28;20401;-38
2023/11/29 02:56:10;;;;;;;3.45;1.33;;;;;;;18.18;51.13;100115.47;5067889;28;20384;-39
2023/11/29 02:58:35;;;;;;;3.67;1.35;;;;;;;18.17;51.33;100113.81;5069513;28;20431;-38
2023/11/29 03:01:01;;;;;;;2.17;1.30;;;;;;;18.15;51.12;100099.59;5068313;28;20031;-39
2023/11/29 03:03:26;;;;;;;3.30;1.13;;;;;;;18.15;51.19;100102.34;5066516;28;20067;-38
2023/11/29 03:05:51;;;;;;;4.10;1.75;;;;;;;18.15;51.12;100098.78;5066168;28;20048;-39
2023/11/29 03:08:18;;;;;;;5.68;1.38;;;;;;;18.13;50.92;100090.84;5073455;28;20039;-39
2023/11/29 03:10:44;;;;;;;2.65;1.10;;;;;;;18.11;51.37;100093.91;5067485;28;20097;-38
2023/11/29 03:13:09;;;;;;;2.75;1.13;;;;;;;18.10;51.34;100089.53;5064953;28;20456;-38
2023/11/29 03:15:34;;;;;;;3.00;1.15;;;;;;;18.10;51.29;100084.03;5084547;28;20035;-39
2023/11/29 03:18:00;;;;;;;2.42;1.20;;;;;;;18.09;51.23;100079.66;5066317;28;20020;-39
2023/11/29 03:20:25;;;;;;;3.65;1.30;;;;;;;18.08;51.35;100077.22;5083053;28;20040;-38
2023/11/29 03:22:50;;;;;;;4.75;1.50;;;;;;;18.07;51.29;100083.81;5063945;28;20617;-38
2023/11/29 03:25:16;;;;;;;1.55;1.10;;;;;;;18.07;51.53;100076.38;5082163;28;20070;-38
2023/11/29 03:27:41;;;;;;;3.63;1.42;;;;;;;18.06;51.39;100074.78;5065419;28;20489;-38
2023/11/29 03:30:07;;;;;;;2.13;1.10;;;;;;;18.04;51.23;100087.97;5071399;28;20366;-38
2023/11/29 03:32:32;;;;;;;2.45;1.30;;;;;;;18.05;51.30;100105.22;5065935;28;20059;-38
2023/11/29 03:34:58;;;;;;;3.38;1.40;;;;;;;18.04;51.42;100095.38;5076731;28;20024;-38
2023/11/29 03:37:23;;;;;;;3.03;1.30;;;;;;;18.01;51.44;100107.72;5068833;28;20109;-39
2023/11/29 03:39:48;;;;;;;3.22;1.20;;;;;;;18.01;51.44;100085.78;5073652;28;20802;-39
2023/11/29 03:42:14;;;;;;;3.80;1.20;;;;;;;17.99;51.24;100079.81;5065309;28;20107;-38
2023/11/29 03:44:39;;;;;;;2.40;1.20;;;;;;;18.01;51.23;100076.78;5065052;28;20056;-34
2023/11/29 03:47:05;;;;;;;3.88;1.25;;;;;;;17.99;51.29;100065.28;5070307;28;20022;-35
2023/11/29 03:49:30;;;;;;;2.75;1.25;;;;;;;17.98;51.17;100060.91;5080419;28;20021;-35
2023/11/29 03:51:56;;;;;;;3.78;1.40;;;;;;;17.96;51.27;100064.78;5061298;28;20066;-35
2023/11/29 03:54:21;;;;;;;1.73;1.08;;;;;;;17.97;51.33;100060.09;5064061;28;20040;-34
2023/11/29 03:56:46;;;;;;;5.38;1.45;;;;;;;17.95;51.20;100054.91;5067945;28;20068;-35
2023/11/29 03:59:12;;;;;;;1.75;1.00;;;;;;;17.95;51.27;100062.31;5064229;28;20086;-35
2023/11/29 04:01:37;;;;;;;2.25;1.13;;;;;;;17.94;51.32;100060.66;5068420;28;20296;-35
2023/11/29 04:04:03;;;;;;;2.17;1.17;;;;;;;17.93;51.20;100070.81;5071912;28;20024;-35
2023/11/29 04:06:28;;;;;;;2.38;1.20;;;;;;;17.92;50.99;100060.94;5045957;28;20055;-34
2023/11/29 04:08:55;;;;;;;4.35;1.10;;;;;;;17.91;50.95;100047.53;5079301;28;20028;-35
2023/11/29 04:11:21;;;;;;;2.40;1.10;;;;;;;17.91;50.91;100033.81;5065064;28;20488;-35
2023/11/29 04:13:46;;;;;;;3.53;1.30;;;;;;;17.90;51.09;100033.03;5065085;28;20025;-35
2023/11/29 04:16:19;;;;;;;2.42;1.20;;;;;;;17.90;51.03;100033.03;5062965;28;20039;-35
2023/11/29 04:18:44;;;;;;;3.95;1.10;;;;;;;17.89;51.03;100031.38;5065026;28;20020;-35
2023/11/29 04:21:18;;;;;;;2.58;1.30;;;;;;;17.88;51.13;100029.75;5062647;28;20039;-36
2023/11/29 04:23:44;;;;;;;2.47;1.10;;;;;;;17.87;51.04;100013.63;5073563;28;20013;-35
2023/11/29 04:26:09;;;;;;;2.67;1.20;;;;;;;17.86;51.17;100021.00;5064252;28;20401;-35
2023/11/29 04:28:34;;;;;;;2.42;1.02;;;;;;;17.84;51.23;100012.28;5069348;28;20041;-35
2023/11/29 04:31:00;;;;;;;2.35;1.17;;;;;;;17.84;51.33;100025.16;5059600;28;20021;-35
2023/11/29 04:33:25;;;;;;;2.00;1.20;;;;;;;17.82;51.31;100039.16;5057284;28;20583;-40
2023/11/29 04:35:53;;;;;;;3.30;1.20;;;;;;;17.81;51.25;100030.09;5076246;28;20036;-39
2023/11/29 04:38:19;;;;;;;2.47;1.30;;;;;;;17.82;51.36;100022.72;5064914;28;20035;-39
2023/11/29 04:40:44;;;;;;;1.42;0.98;;;;;;;17.81;51.56;100024.63;5069480;28;20241;-39
2023/11/29 04:43:09;;;;;;;1.73;1.00;;;;;;;17.80;51.71;100023.03;5066021;28;20362;-39
2023/11/29 04:45:35;;;;;;;1.63;0.80;;;;;;;17.79;51.54;100032.34;5067399;28;20059;-39
2023/11/29 04:48:00;;;;;;;1.98;1.15;;;;;;;17.79;51.63;100035.09;5063435;28;20036;-35
2023/11/29 04:50:25;;;;;;;2.65;1.10;;;;;;;17.79;51.28;100042.47;5077049;28;20032;-35
2023/11/29 04:52:51;;;;;;;2.88;1.20;;;;;;;17.77;51.40;100051.00;5063108;28;20528;-35
2023/11/29 04:55:16;;;;;;;2.38;1.23;;;;;;;17.78;51.61;100038.94;5063220;28;20272;-39
2023/11/29 04:57:42;;;;;;;2.30;1.13;;;;;;;17.78;51.52;100060.03;5063988;28;20107;-35
2023/11/29 05:00:08;;;;;;;2.42;0.98;;;;;;;17.78;51.64;100054.53;5063332;28;20492;-34
2023/11/29 05:02:33;;;;;;;2.22;1.05;;;;;;;17.77;51.72;100041.97;5065253;28;20039;-38
2023/11/29 05:04:58;;;;;;;2.85;1.10;;;;;;;17.77;51.78;100055.69;5065431;28;20028;-38
2023/11/29 05:07:24;;;;;;;2.75;1.17;;;;;;;17.76;51.77;100048.56;5065095;28;20021;-38
2023/11/29 05:09:49;;;;;;;1.90;0.98;;;;;;;17.76;51.58;100021.97;5065044;28;20206;-39
2023/11/29 05:12:15;;;;;;;2.05;1.02;;;;;;;17.78;51.70;100040.84;5071454;28;20024;-39
2023/11/29 05:14:40;;;;;;;1.13;0.98;;;;;;;17.77;51.49;100023.59;5063608;28;20544;-35
2023/11/29 05:17:05;;;;;;;3.45;1.35;;;;;;;17.78;51.51;100019.75;5063542;28;20623;-34
2023/11/29 05:19:31;;;;;;;1.15;0.90;;;;;;;17.79;51.50;100026.03;5066518;28;20039;-34
2023/11/29 05:21:56;;;;;;;1.10;0.90;;;;;;;17.78;51.54;100018.91;5063257;28;20029;-35
2023/11/29 05:24:21;;;;;;;3.83;1.27;;;;;;;17.78;51.37;100030.72;5063432;28;20107;-34
2023/11/29 05:26:47;;;;;;;5.30;1.00;;;;;;;17.77;51.66;100031.81;5063838;28;20485;-34
2023/11/29 05:29:12;;;;;;;3.00;1.38;;;;;;;17.77;51.46;100031.00;5063180;28;20074;-34
2023/11/29 05:31:37;;;;;;;1.20;0.80;;;;;;;17.76;51.51;100043.88;5062912;28;20066;-34
2023/11/29 05:34:03;;;;;;;3.00;0.93;;;;;;;17.75;51.72;100035.97;5063315;28;20389;-34
2023/11/29 05:36:28;;;;;;;1.77;0.88;;;;;;;17.75;51.70;100039.50;5059456;28;20196;-35
2023/11/29 05:38:53;;;;;;;2.78;0.80;;;;;;;17.75;51.53;100035.97;5052927;28;20133;-34
2023/11/29 05:41:19;;;;;;;1.55;0.90;;;;;;;17.74;51.62;100034.31;5075898;28;20060;-35
2023/11/29 05:43:44;;;;;;;3.42;1.00;;;;;;;17.74;51.52;100032.41;5062718;28;20493;-35
2023/11/29 05:46:10;;;;;;;2.50;0.77;;;;;;;17.73;51.40;100032.69;5062402;28;20032;-35
2023/11/29 05:48:35;;;;;;;1.08;0.85;;;;;;;17.72;51.61;100039.28;5062710;28;20111;-38
2023/11/29 05:51:01;;;;;;;2.13;1.00;;;;;;;17.70;51.73;100034.09;5073462;28;20056;-39
2023/11/29 05:53:26;;;;;;;2.08;0.88;;;;;;;17.70;51.53;100041.53;5063439;28;20501;-38
2023/11/29 05:55:52;;;;;;;3.58;1.00;;;;;;;17.69;51.83;100048.09;5063996;28;20503;-39
2023/11/29 05:58:17;;;;;;;1.88;0.90;;;;;;;17.69;51.77;100056.31;5063451;28;20455;-39
2023/11/29 06:00:42;;;;;;;3.70;1.20;;;;;;;17.70;51.76;100052.47;5062060;28;20064;-40
2023/11/29 06:03:08;;;;;;;2.50;1.27;;;;;;;17.72;51.86;100059.28;5059193;28;20389;-39
2023/11/29 06:05:34;;;;;;;2.58;1.13;;;;;;;17.76;51.89;100062.25;5055789;28;20078;-38
2023/11/29 06:07:59;;;;;;;1.77;1.02;;;;;;;17.79;51.85;100062.50;5064107;28;20028;-38
2023/11/29 06:10:25;;;;;;;2.13;0.90;;;;;;;17.84;51.79;100071.75;5065658;28;20108;-38
2023/11/29 06:12:50;;;;;;;2.25;1.30;;;;;;;17.89;51.82;100072.50;5074775;28;20481;-39
2023/11/29 06:15:15;;;;;;;4.20;1.27;;;;;;;17.96;51.93;100066.69;5066703;28;20028;-39
2023/11/29 06:17:42;;;;;;;1.95;1.00;;;;;;;18.03;51.89;100069.06;5066915;28;20103;-38
2023/11/29 06:20:09;;;;;;;2.38;1.10;;;;;;;18.10;51.86;100073.06;5070156;28;20028;-34
2023/11/29 06:22:35;;;;;;;1.98;0.90;;;;;;;18.18;51.77;100082.56;5066257;28;20020;-35
2023/11/29 06:25:00;;;;;;;4.25;1.20;;;;;;;18.27;51.68;100077.22;5069519;28;20416;-35
2023/11/29 06:27:28;;;;;;;1.83;1.05;;;;;;;18.36;51.76;100080.13;5066342;28;20036;-35
2023/11/29 06:29:54;;;;;;;1.15;1.00;;;;;;;18.47;51.62;100095.31;5066875;28;20036;-36
2023/11/29 06:32:20;;;;;;;2.50;1.10;;;;;;;18.58;51.43;100129.69;5065524;28;20512;-39
2023/11/29 06:34:46;;;;;;;1.77;1.02;;;;;;;18.68;51.60;100134.22;5068279;28;20036;-40
2023/11/29 06:37:11;;;;;;;1.50;1.00;;;;;;;18.80;51.50;100130.19;5067709;28;20067;-39
2023/11/29 06:39:36;;;;;;;2.58;1.30;;;;;;;18.89;51.34;100139.38;5067509;28;20507;-40
2023/11/29 06:42:02;;;;;;;2.90;1.20;;;;;;;18.98;50.76;100128.56;5060328;28;20028;-38
2023/11/29 06:44:27;;;;;;;3.17;1.10;;;;;;;19.08;51.13;100133.91;5064374;28;20405;-39
2023/11/29 06:46:54;;;;;;;3.40;1.25;;;;;;;19.16;50.81;100143.38;5062823;28;20380;-38
2023/11/29 06:49:20;;;;;;;2.88;1.02;;;;;;;19.23;50.79;100144.59;5064045;28;20203;-39
2023/11/29 06:51:45;;;;;;;3.55;1.27;;;;;;;19.30;50.74;100135.97;5058199;28;20157;-39
2023/11/29 06:54:10;;;;;;;4.10;1.23;;;;;;;19.37;50.52;100136.41;5064616;28;20037;-38
2023/11/29 06:56:36;;;;;;;2.13;1.10;;;;;;;19.45;50.62;100136.78;5067041;28;20377;-39
2023/11/29 06:59:04;;;;;;;2.90;1.13;;;;;;;19.50;50.52;100134.78;5064224;28;20020;-39
2023/11/29 07:01:30;;;;;;;2.40;1.20;;;;;;;19.58;50.49;100135.19;5073125;28;20044;-39
2023/11/29 07:03:55;;;;;;;3.05;1.10;;;;;;;19.63;50.38;100152.41;5081256;28;20103;-39
2023/11/29 07:06:22;;;;;;;3.13;1.10;;;;;;;19.68;50.28;100149.56;5067674;28;20121;-39
2023/11/29 07:08:48;;;;;;;3.42;1.40;;;;;;;19.73;50.36;100145.91;5078591;28;20028;-39
2023/11/29 07:11:13;;;;;;;2.95;1.27;;;;;;;19.80;49.99;100151.78;5066632;28;20539;-39
2023/11/29 07:13:39;;;;;;;3.05;1.27;;;;;;;19.84;50.03;100139.09;5065926;28;20109;-39
2023/11/29 07:16:04;;;;;;;2.20;1.30;;;;;;;19.90;50.13;100147.22;5075440;28;20028;-39
2023/11/29 07:18:30;;;;;;;2.78;1.08;;;;;;;19.93;50.20;100146.63;5072420;28;20032;-39
2023/11/29 07:20:56;;;;;;;2.72;1.20;;;;;;;19.96;49.86;100155.09;5068400;28;20023;-39
2023/11/29 07:23:22;;;;;;;1.38;0.90;;;;;;;20.00;49.97;100147.84;5065771;28;20480;-40
2023/11/29 07:25:49;;;;;;;3.88;1.20;;;;;;;20.05;49.78;100157.94;5058163;28;20469;-39
2023/11/29 07:28:15;;;;;;;4.05;1.10;;;;;;;20.09;49.89;100163.63;5065277;28;20059;-39
2023/11/29 07:30:40;;;;;;;2.15;1.10;;;;;;;20.13;49.73;100162.69;5066940;28;20453;-39
2023/11/29 07:33:06;;;;;;;5.18;1.20;;;;;;;20.16;49.84;100166.78;5064742;28;20032;-39
2023/11/29 07:35:31;;;;;;;2.22;1.40;;;;;;;20.17;49.65;100174.72;5064904;28;20542;-39
2023/11/29 07:37:57;;;;;;;1.83;1.08;;;;;;;20.18;49.48;100181.03;5053157;28;20028;-35
2023/11/29 07:40:22;;;;;;;1.73;0.93;;;;;;;20.17;49.57;100184.91;5065855;28;20028;-35
2023/11/29 07:42:48;;;;;;;3.92;1.17;;;;;;;20.16;49.76;100188.78;5064804;28;20121;-35
2023/11/29 07:45:14;;;;;;;2.15;0.85;;;;;;;20.16;49.68;100189.59;5063639;28;20032;-35
2023/11/29 07:47:40;;;;;;;1.70;1.00;;;;;;;20.15;49.51;100193.47;5075875;28;20468;-35
2023/11/29 07:50:06;;;;;;;1.90;0.90;;;;;;;20.13;49.46;100206.69;5072390;28;20437;-36
2023/11/29 07:52:35;;;;;;;2.63;1.10;;;;;;;20.11;49.55;100200.72;5063817;28;20028;-36
2023/11/29 07:55:02;;;;;;;2.67;1.05;;;;;;;20.10;49.60;100201.00;5064088;28;20435;-35
2023/11/29 07:57:28;;;;;;;1.73;1.00;;;;;;;20.08;49.65;100214.25;5074305;28;20670;-35
2023/11/29 07:59:53;;;;;;;1.13;1.00;;;;;;;20.01;49.37;100212.72;5063279;28;20103;-35
2023/11/29 08:02:19;;;;;;;3.05;1.30;;;;;;;20.00;49.83;100213.84;5065514;28;20024;-35
2023/11/29 08:04:44;;;;;;;1.67;0.80;;;;;;;19.99;49.71;100227.91;5064709;28;20493;-35
2023/11/29 08:07:09;;;;;;;1.63;1.00;;;;;;;19.96;49.37;100237.59;5060885;28;20025;-36
2023/11/29 08:09:35;;;;;;;1.73;1.10;;;;;;;19.94;49.51;100255.50;5065138;28;20473;-35
2023/11/29 08:12:00;;;;;;;4.15;1.08;;;;;;;19.91;49.53;100254.16;5063747;28;20028;-35
2023/11/29 08:14:26;;;;;;;3.80;1.20;;;;;;;19.90;49.56;100262.72;5075585;28;20025;-35
2023/11/29 08:16:51;;;;;;;3.15;1.27;;;;;;;19.86;49.43;100262.53;5063051;28;20028;-35
2023/11/29 08:19:16;;;;;;;1.75;1.02;;;;;;;19.84;49.80;100275.75;5061422;28;20282;-35
2023/11/29 08:21:43;;;;;;;3.15;1.00;;;;;;;19.80;49.41;100280.19;5061064;28;20606;-35
2023/11/29 08:24:08;;;;;;;1.33;1.00;;;;;;;19.77;49.54;100283.56;5065420;28;20374;-36
2023/11/29 08:26:35;;;;;;;1.73;1.02;;;;;;;19.71;49.74;100285.59;5064058;28;20058;-36
2023/11/29 08:29:00;;;;;;;4.80;1.10;;;;;;;19.65;49.86;100295.03;5066522;28;20023;-36
2023/11/29 08:31:27;;;;;;;2.33;1.08;;;;;;;19.61;49.70;100303.06;5064368;28;20111;-35
2023/11/29 08:33:52;;;;;;;2.50;1.13;;;;;;;19.57;49.84;100302.06;5062838;28;20517;-36
2023/11/29 08:36:19;;;;;;;2.70;1.10;;;;;;;19.52;49.90;100302.94;5061240;28;20469;-36
2023/11/29 08:38:46;;;;;;;2.47;1.25;;;;;;;19.48;49.64;100301.91;5053722;28;20024;-35
2023/11/29 08:41:11;;;;;;;3.22;1.52;;;;;;;19.44;49.74;100295.38;5064554;28;20384;-36
2023/11/29 08:43:37;;;;;;;3.13;1.20;;;;;;;19.39;49.67;100285.28;5073099;28;20119;-36
2023/11/29 08:46:03;;;;;;;2.90;1.33;;;;;;;19.38;49.57;100282.84;5062704;28;20031;-40
2023/11/29 08:48:28;;;;;;;2.83;1.25;;;;;;;19.34;49.70;100282.63;5065515;28;20032;-40
2023/11/29 08:50:54;;;;;;;2.95;1.20;;;;;;;19.31;50.04;100285.97;5063309;28;20032;-39
2023/11/29 08:53:20;;;;;;;4.40;1.42;;;;;;;19.28;49.76;100283.81;5063754;28;20552;-38
2023/11/29 08:55:46;;;;;;;1.88;1.05;;;;;;;19.26;49.84;100279.75;5059302;28;20571;-35
2023/11/29 08:58:13;;;;;;;2.13;1.17;;;;;;;19.23;49.84;100283.91;5063302;28;20032;-35
2023/11/29 09:00:41;;;;;;;2.30;1.30;;;;;;;19.20;50.12;100287.22;5059391;28;20021;-40
2023/11/29 09:03:08;;;;;;;3.55;1.40;;;;;;;19.19;49.98;100291.09;5065201;28;20052;-39
2023/11/29 09:05:34;;;;;;;3.03;1.13;;;;;;;19.16;50.06;100286.19;5069098;28;20085;-39
2023/11/29 09:07:59;;;;;;;5.60;1.40;;;;;;;19.16;50.31;100289.75;5052834;28;20485;-40
2023/11/29 09:10:25;;;;;;;2.13;1.10;;;;;;;19.14;50.36;100292.00;5062199;28;20036;-38
2023/11/29 09:12:50;;;;;;;2.55;1.40;;;;;;;19.14;50.32;100294.75;5063506;28;20036;-39
2023/11/29 09:15:15;;;;;;;1.63;1.10;;;;;;;19.13;50.21;100301.34;5054334;28;20087;-40
2023/11/29 09:17:44;;;;;;;2.00;1.40;;;;;;;19.13;50.19;100303.25;5067914;28;20035;-39
2023/11/29 09:20:10;;;;;;;3.03;1.30;;;;;;;19.13;50.11;100314.25;5054728;28;20039;-35
2023/11/29 09:22:35;;;;;;;3.78;1.30;;;;;;;19.13;50.03;100314.25;5068904;28;20028;-35
2023/11/29 09:25:02;;;;;;;3.95;1.23;;;;;;;19.11;50.23;100311.81;5064977;28;20127;-35
2023/11/29 09:27:28;;;;;;;2.40;1.20;;;;;;;19.11;49.99;100316.50;5060355;28;20113;-35
2023/11/29 09:29:53;;;;;;;2.55;1.40;;;;;;;19.08;49.85;100312.41;5052015;28;20386;-34
2023/11/29 09:32:19;;;;;;;118.70;4.60;;;;;;;19.08;50.18;100313.22;5068766;28;20101;-35
2023/11/29 09:34:44;;;;;;;10.20;1.60;;;;;;;19.11;50.24;100311.00;5074369;28;20106;-34
2023/11/29 09:37:10;;;;;;;4.18;1.20;;;;;;;19.15;50.03;100306.53;5061981;28;20510;-37
2023/11/29 09:39:35;;;;;;;2.83;1.30;;;;;;;19.20;49.84;100311.94;5062668;28;20033;-35
2023/11/29 09:42:02;;;;;;;1.75;1.00;;;;;;;19.26;49.50;100312.69;5056118;28;20119;-35
2023/11/29 09:44:30;;;;;;;3.25;1.45;;;;;;;19.30;49.23;100314.56;5062055;28;20048;-35
2023/11/29 09:46:56;;;;;;;4.60;1.55;;;;;;;19.35;49.29;100308.97;5061928;28;20507;-35
2023/11/29 09:49:22;;;;;;;3.67;1.25;;;;;;;19.43;49.12;100314.91;5061536;28;20534;-35
2023/11/29 09:51:47;;;;;;;2.65;1.20;;;;;;;19.48;48.94;100314.84;5078136;28;20048;-35
2023/11/29 09:54:14;;;;;;;1.60;1.20;;;;;;;19.54;48.97;100302.63;5060595;28;20048;-35
2023/11/29 09:56:40;;;;;;;1.90;1.10;;;;;;;19.61;48.90;100299.50;5063761;28;20419;-34
2023/11/29 09:59:06;;;;;;;1.95;1.13;;;;;;;19.66;48.92;100313.97;5059137;28;20016;-39
2023/11/29 10:01:36;;;;;;;2.63;1.08;;;;;;;19.71;48.85;100313.88;5077852;28;20028;-39
2023/11/29 10:04:04;;;;;;;2.30;1.42;;;;;;;19.76;48.73;100320.44;5062441;28;20033;-38
2023/11/29 10:06:30;;;;;;;2.25;1.10;;;;;;;19.80;48.47;100325.00;5051956;28;20043;-39
2023/11/29 10:08:55;;;;;;;2.78;1.30;;;;;;;19.85;48.54;100346.13;5068229;28;20464;-38
2023/11/29 10:11:20;;;;;;;2.45;1.20;;;;;;;19.90;48.45;100351.53;5067708;28;20032;-39
2023/11/29 10:13:47;;;;;;;3.22;1.38;;;;;;;19.93;48.47;100350.16;5057947;28;20028;-39
2023/11/29 10:16:15;;;;;;;4.50;1.30;;;;;;;19.96;48.36;100346.78;5075271;28;20032;-38
2023/11/29 10:18:40;;;;;;;2.75;1.23;;;;;;;19.96;48.22;100336.59;5068241;28;20028;-39
2023/11/29 10:21:06;;;;;;;3.95;1.05;;;;;;;20.00;47.97;100336.78;5065614;28;20045;-39
2023/11/29 10:23:32;;;;;;;2.20;1.20;;;;;;;20.01;48.21;100333.75;5066626;28;20363;-38
2023/11/29 10:25:59;;;;;;;2.45;1.20;;;;;;;20.04;47.90;100346.88;5063112;28;20063;-39
2023/11/29 10:28:24;;;;;;;2.03;1.30;;;;;;;20.01;47.99;100328.25;5067480;28;20054;-39
2023/11/29 10:30:50;;;;;;;2.63;1.25;;;;;;;20.05;47.87;100331.22;5064956;28;20059;-38
2023/11/29 10:33:15;;;;;;;1.80;1.17;;;;;;;20.07;47.85;100325.41;5065884;28;20516;-38
2023/11/29 10:35:41;;;;;;;1.45;1.02;;;;;;;20.08;47.76;100327.84;5066350;28;20036;-39
2023/11/29 10:38:14;;;;;;;3.42;1.10;;;;;;;20.09;47.98;100323.19;5060680;28;20039;-33
2023/11/29 10:40:41;;;;;;;1.88;1.15;;;;;;;20.10;47.81;100325.63;5061908;28;20033;-35
2023/11/29 10:43:09;;;;;;;2.10;1.10;;;;;;;20.13;48.01;100327.75;5059662;28;20078;-33
2023/11/29 10:45:36;;;;;;;2.25;1.15;;;;;;;20.16;47.88;100329.91;5060915;28;20107;-34
2023/11/29 10:48:10;;;;;;;2.50;1.20;;;;;;;20.17;48.16;100334.28;5061787;28;20111;-39
2023/11/29 10:50:37;;;;;;;2.88;1.20;;;;;;;20.20;48.19;100336.41;5060850;28;20416;-39
2023/11/29 10:53:02;;;;;;;4.15;1.23;;;;;;;20.24;48.01;100330.31;5064496;28;20520;-39
2023/11/29 10:55:28;;;;;;;1.70;1.10;;;;;;;20.26;48.06;100339.09;5054589;28;20049;-39
2023/11/29 10:57:59;;;;;;;2.05;1.10;;;;;;;20.28;47.93;100329.41;5083196;28;20032;-39
2023/11/29 11:00:27;;;;;;;2.10;1.15;;;;;;;20.31;48.07;100330.75;5079419;28;20349;-33
2023/11/29 11:02:52;;;;;;;3.22;1.35;;;;;;;20.33;47.88;100336.72;5064926;28;20088;-34
2023/11/29 11:05:22;;;;;;;1.90;1.40;;;;;;;20.36;47.64;100339.69;5065378;28;20028;-33
2023/11/29 11:07:48;;;;;;;2.65;1.30;;;;;;;20.38;48.08;100324.81;5063969;28;20032;-34
2023/11/29 11:10:24;;;;;;;4.63;1.30;;;;;;;20.39;47.94;100324.50;5065065;28;20190;-34
2023/11/29 11:12:51;;;;;;;1.58;1.20;;;;;;;20.42;47.96;100321.16;5062651;28;20029;-35
2023/11/29 11:15:23;;;;;;;1.88;1.33;;;;;;;20.42;48.02;100337.66;5061464;28;20210;-34
2023/11/29 11:18:01;;;;;;;2.65;1.70;;;;;;;20.45;48.13;100334.31;5065066;28;20044;-34